createdAt,value
2023-09-06T00:02:16.146Z,21.02
2023-09-06T00:04:45.508Z,21.03
2023-09-06T00:07:14.326Z,21.00
2023-09-06T00:09:41.217Z,21.00
2023-09-06T00:12:10.036Z,20.93
2023-09-06T00:14:37.961Z,20.87
2023-09-06T00:17:04.727Z,20.83
2023-09-06T00:19:31.416Z,20.87
2023-09-06T00:22:00.445Z,20.82
2023-09-06T00:24:27.299Z,20.78
2023-09-06T00:26:55.974Z,20.85
2023-09-06T00:29:22.771Z,20.83
2023-09-06T00:31:49.496Z,20.78
2023-09-06T00:34:16.692Z,20.84
2023-09-06T00:36:45.746Z,20.70
2023-09-06T00:39:15.287Z,20.80
2023-09-06T00:41:42.920Z,20.77
2023-09-06T00:44:09.696Z,20.80
2023-09-06T00:46:40.207Z,20.80
2023-09-06T00:49:08.828Z,20.79
2023-09-06T00:51:35.638Z,20.77
2023-09-06T00:54:02.461Z,20.75
2023-09-06T00:56:33.036Z,20.72
2023-09-06T00:59:02.327Z,20.70
2023-09-06T01:01:29.931Z,20.66
2023-09-06T01:03:58.410Z,20.35
2023-09-06T01:06:29.040Z,20.66
2023-09-06T01:09:00.152Z,20.64
2023-09-06T01:11:28.403Z,20.60
2023-09-06T01:14:04.647Z,20.56
2023-09-06T01:16:41.625Z,20.53
2023-09-06T01:19:12.841Z,20.24
2023-09-06T01:21:59.802Z,20.52
2023-09-06T01:24:30.412Z,20.50
2023-09-06T01:26:58.727Z,20.48
2023-09-06T01:29:25.468Z,20.50
2023-09-06T01:31:52.152Z,20.50
2023-09-06T01:34:18.925Z,20.49
2023-09-06T01:36:45.645Z,20.49
2023-09-06T01:39:12.517Z,20.48
2023-09-06T01:41:39.128Z,20.47
2023-09-06T01:44:06.204Z,20.47
2023-09-06T01:46:32.989Z,20.46
2023-09-06T01:49:02.737Z,20.42
2023-09-06T01:51:29.546Z,20.41
2023-09-06T01:53:56.579Z,20.41
2023-09-06T01:56:23.319Z,20.40
2023-09-06T01:58:52.269Z,20.39
2023-09-06T02:01:20.403Z,20.31
2023-09-06T02:03:47.192Z,20.30
2023-09-06T02:06:16.929Z,20.25
2023-09-06T02:08:46.011Z,20.23
2023-09-06T02:11:12.660Z,20.23
2023-09-06T02:13:39.364Z,20.22
2023-09-06T02:16:07.999Z,20.21
2023-09-06T02:18:34.832Z,20.21
2023-09-06T02:21:03.512Z,20.21
2023-09-06T02:23:30.260Z,20.19
2023-09-06T02:25:59.311Z,20.15
2023-09-06T02:28:26.049Z,20.16
2023-09-06T02:30:52.732Z,20.16
2023-09-06T02:33:21.816Z,20.13
2023-09-06T02:35:50.931Z,20.01
2023-09-06T02:38:18.228Z,20.14
2023-09-06T02:40:45.124Z,20.13
2023-09-06T02:43:12.522Z,20.07
2023-09-06T02:45:39.584Z,20.10
2023-09-06T02:48:08.893Z,20.07
2023-09-06T02:50:35.818Z,20.03
2023-09-06T02:53:05.229Z,19.95
2023-09-06T02:55:36.927Z,19.93
2023-09-06T02:58:03.604Z,19.96
2023-09-06T03:00:31.298Z,19.94
2023-09-06T03:03:07.161Z,19.96
2023-09-06T03:05:44.927Z,19.96
2023-09-06T03:08:13.525Z,19.97
2023-09-06T03:10:45.910Z,19.91
2023-09-06T03:13:12.813Z,19.91
2023-09-06T03:15:44.822Z,19.88
2023-09-06T03:18:11.807Z,19.69
2023-09-06T03:20:45.296Z,19.80
2023-09-06T03:23:20.472Z,19.84
2023-09-06T03:25:59.602Z,19.84
2023-09-06T03:28:27.376Z,19.63
2023-09-06T03:30:54.656Z,19.56
2023-09-06T03:33:21.309Z,19.85
2023-09-06T03:35:48.978Z,19.64
2023-09-06T03:38:19.343Z,19.69
2023-09-06T03:40:50.569Z,19.38
2023-09-06T03:43:18.189Z,19.68
2023-09-06T03:45:46.545Z,19.75
2023-09-06T03:48:18.971Z,19.75
2023-09-06T03:50:47.214Z,19.75
2023-09-06T03:53:15.936Z,19.72
2023-09-06T03:55:45.553Z,19.71
2023-09-06T03:58:12.352Z,19.41
2023-09-06T04:00:40.771Z,19.72
2023-09-06T04:03:10.086Z,19.70
2023-09-06T04:05:37.100Z,19.66
2023-09-06T04:08:10.540Z,19.70
2023-09-06T04:10:41.720Z,19.60
2023-09-06T04:13:10.738Z,19.63
2023-09-06T04:15:37.488Z,19.65
2023-09-06T04:18:11.390Z,19.60
2023-09-06T04:20:46.204Z,19.63
2023-09-06T04:23:14.606Z,19.61
2023-09-06T04:25:43.493Z,19.60
2023-09-06T04:28:20.589Z,19.59
2023-09-06T04:30:47.716Z,19.52
2023-09-06T04:33:17.405Z,19.58
2023-09-06T04:35:46.070Z,19.57
2023-09-06T04:38:14.041Z,19.56
2023-09-06T04:40:41.061Z,19.53
2023-09-06T04:43:08.998Z,19.21
2023-09-06T04:45:39.204Z,19.54
2023-09-06T04:48:13.203Z,19.51
2023-09-06T04:50:44.406Z,19.52
2023-09-06T04:53:14.487Z,19.45
2023-09-06T04:55:41.662Z,19.48
2023-09-06T04:58:13.141Z,19.49
2023-09-06T05:00:44.560Z,19.49
2023-09-06T05:03:15.024Z,19.48
2023-09-06T05:05:43.093Z,19.46
2023-09-06T05:08:13.084Z,19.44
2023-09-06T05:10:42.533Z,19.40
2023-09-06T05:13:09.830Z,19.39
2023-09-06T05:15:39.176Z,19.01
2023-09-06T05:18:07.553Z,19.36
2023-09-06T05:20:38.684Z,19.38
2023-09-06T05:23:06.871Z,19.40
2023-09-06T05:25:34.514Z,19.03
2023-09-06T05:28:03.507Z,19.40
2023-09-06T05:30:35.930Z,19.35
2023-09-06T05:33:02.662Z,19.40
2023-09-06T05:35:31.786Z,19.41
2023-09-06T05:38:01.408Z,19.42
2023-09-06T05:40:30.978Z,19.42
2023-09-06T05:42:58.353Z,19.29
2023-09-06T05:45:25.052Z,19.39
2023-09-06T05:47:51.952Z,19.44
2023-09-06T05:50:18.891Z,19.44
2023-09-06T05:52:45.668Z,19.48
2023-09-06T05:55:14.408Z,18.90
2023-09-06T05:57:41.087Z,19.55
2023-09-06T06:00:14.301Z,19.59
2023-09-06T06:02:41.441Z,19.63
2023-09-06T06:05:11.165Z,19.68
2023-09-06T06:07:40.740Z,19.73
2023-09-06T06:10:11.193Z,19.69
2023-09-06T06:12:40.748Z,19.84
2023-09-06T06:15:15.065Z,19.91
2023-09-06T06:17:43.029Z,19.97
2023-09-06T06:20:12.382Z,20.05
2023-09-06T06:22:41.108Z,20.13
2023-09-06T06:25:09.396Z,20.22
2023-09-06T06:27:42.446Z,20.30
2023-09-06T06:30:09.713Z,20.37
2023-09-06T06:32:37.164Z,20.46
2023-09-06T06:35:07.594Z,20.55
2023-09-06T06:37:37.480Z,20.66
2023-09-06T06:40:07.372Z,20.77
2023-09-06T06:42:35.485Z,20.89
2023-09-06T06:45:05.934Z,21.01
2023-09-06T06:47:35.542Z,21.14
2023-09-06T06:50:07.173Z,21.27
2023-09-06T06:52:37.963Z,21.39
2023-09-06T06:55:07.931Z,21.53
2023-09-06T06:57:36.639Z,21.66
2023-09-06T07:00:07.475Z,21.53
2023-09-06T07:02:39.147Z,21.89
2023-09-06T07:05:06.048Z,22.00
2023-09-06T07:07:32.776Z,22.22
2023-09-06T07:09:59.399Z,22.43
2023-09-06T07:12:26.096Z,22.50
2023-09-06T07:14:53.249Z,22.73
2023-09-06T07:17:22.136Z,22.86
2023-09-06T07:19:51.470Z,22.91
2023-09-06T07:22:18.300Z,23.37
2023-09-06T07:24:47.212Z,23.78
2023-09-06T07:27:13.875Z,23.90
2023-09-06T07:29:42.976Z,24.67
2023-09-06T07:32:09.771Z,24.80
2023-09-06T07:34:36.483Z,25.52
2023-09-06T07:37:03.768Z,26.18
2023-09-06T07:39:30.733Z,26.67
2023-09-06T07:41:57.521Z,26.82
2023-09-06T07:44:24.216Z,27.62
2023-09-06T07:46:53.341Z,28.11
2023-09-06T07:49:22.555Z,28.49
2023-09-06T07:51:49.313Z,28.88
2023-09-06T07:54:16.065Z,29.50
2023-09-06T07:56:44.119Z,29.75
2023-09-06T07:59:13.244Z,30.24
2023-09-06T08:01:45.710Z,30.67
2023-09-06T08:04:14.751Z,31.04
2023-09-06T08:06:44.321Z,31.42
2023-09-06T08:09:11.858Z,31.81
2023-09-06T08:11:40.908Z,32.14
2023-09-06T08:14:10.084Z,32.26
2023-09-06T08:16:36.851Z,32.84
2023-09-06T08:19:04.638Z,33.06
2023-09-06T08:21:31.709Z,33.28
2023-09-06T08:23:58.534Z,33.20
2023-09-06T08:26:25.245Z,33.59
2023-09-06T08:28:57.482Z,33.56
2023-09-06T08:31:24.265Z,33.91
2023-09-06T08:33:51.277Z,33.83
2023-09-06T08:36:19.464Z,34.27
2023-09-06T08:38:51.064Z,34.43
2023-09-06T08:41:18.520Z,34.62
2023-09-06T08:43:45.379Z,34.71
2023-09-06T08:46:28.620Z,34.70
2023-09-06T08:48:57.357Z,34.66
2023-09-06T08:51:33.485Z,34.73
2023-09-06T08:54:01.326Z,34.78
2023-09-06T08:56:28.622Z,34.73
2023-09-06T08:58:55.318Z,34.88
2023-09-06T09:01:23.306Z,34.95
2023-09-06T09:03:50.351Z,35.00
2023-09-06T09:06:19.286Z,35.09
2023-09-06T09:08:46.060Z,35.27
2023-09-06T09:11:20.037Z,35.29
2023-09-06T09:13:49.358Z,35.03
2023-09-06T09:16:17.777Z,35.42
2023-09-06T09:18:46.157Z,35.52
2023-09-06T09:21:14.374Z,35.59
2023-09-06T09:23:48.000Z,35.60
2023-09-06T09:26:15.136Z,35.59
2023-09-06T09:28:42.777Z,35.50
2023-09-06T09:31:16.954Z,35.32
2023-09-06T09:33:47.261Z,35.03
2023-09-06T09:36:16.064Z,35.21
2023-09-06T09:38:51.068Z,35.10
2023-09-06T09:41:18.672Z,35.01
2023-09-06T09:43:47.601Z,34.87
2023-09-06T09:46:27.308Z,34.82
2023-09-06T09:49:00.177Z,34.53
2023-09-06T09:51:29.617Z,34.46
2023-09-06T09:53:56.674Z,34.42
2023-09-06T09:56:23.999Z,34.26
2023-09-06T09:58:52.903Z,34.02
2023-09-06T10:01:21.503Z,34.11
2023-09-06T10:03:51.199Z,34.02
2023-09-06T10:06:18.887Z,33.77
2023-09-06T10:08:49.261Z,33.83
2023-09-06T10:11:18.874Z,33.74
2023-09-06T10:13:49.010Z,33.64
2023-09-06T10:16:15.805Z,33.68
2023-09-06T10:18:43.422Z,33.29
2023-09-06T10:21:15.645Z,33.55
2023-09-06T10:23:43.595Z,33.57
2023-09-06T10:26:10.927Z,33.56
2023-09-06T10:28:40.401Z,33.60
2023-09-06T10:31:10.037Z,33.67
2023-09-06T10:33:37.214Z,33.68
2023-09-06T10:36:13.146Z,33.65
2023-09-06T10:38:52.044Z,33.67
2023-09-06T10:41:22.556Z,33.59
2023-09-06T10:44:08.569Z,33.29
2023-09-06T10:46:38.559Z,33.46
2023-09-06T10:49:15.159Z,33.39
2023-09-06T10:52:01.582Z,33.38
2023-09-06T10:54:39.643Z,33.31
2023-09-06T10:57:11.793Z,33.35
2023-09-06T10:59:46.683Z,33.37
2023-09-06T11:02:25.056Z,33.25
2023-09-06T11:05:09.793Z,33.16
2023-09-06T11:07:50.427Z,33.08
2023-09-06T11:10:25.265Z,33.03
2023-09-06T11:12:55.612Z,32.99
2023-09-06T11:15:23.882Z,32.95
2023-09-06T11:18:00.434Z,33.12
2023-09-06T11:20:27.468Z,33.19
2023-09-06T11:22:58.444Z,33.07
2023-09-06T11:25:26.555Z,33.09
2023-09-06T11:28:02.210Z,33.06
2023-09-06T11:30:32.905Z,32.92
2023-09-06T11:33:00.030Z,32.68
2023-09-06T11:35:29.990Z,33.05
2023-09-06T11:38:01.490Z,32.41
2023-09-06T11:40:31.128Z,32.98
2023-09-06T11:43:03.823Z,32.84
2023-09-06T11:45:32.845Z,32.79
2023-09-06T11:48:09.664Z,32.81
2023-09-06T11:50:39.722Z,32.51
2023-09-06T11:53:11.339Z,32.84
2023-09-06T11:55:47.138Z,32.71
2023-09-06T11:58:22.520Z,32.82
2023-09-06T12:00:52.787Z,32.65
2023-09-06T12:03:23.271Z,32.28
2023-09-06T12:05:54.632Z,32.54
2023-09-06T12:08:26.484Z,32.44
2023-09-06T12:10:56.090Z,32.39
2023-09-06T12:13:33.243Z,32.43
2023-09-06T12:16:00.716Z,32.42
2023-09-06T12:18:31.549Z,32.38
2023-09-06T12:20:59.610Z,32.33
2023-09-06T12:23:30.614Z,32.22
2023-09-06T12:25:59.136Z,32.13
2023-09-06T12:28:26.742Z,32.02
2023-09-06T12:30:56.392Z,31.59
2023-09-06T12:33:28.532Z,31.82
2023-09-06T12:36:06.875Z,31.72
2023-09-06T12:38:33.719Z,31.56
2023-09-06T12:41:06.223Z,31.45
2023-09-06T12:43:36.400Z,31.27
2023-09-06T12:46:12.524Z,31.09
2023-09-06T12:48:39.733Z,31.01
2023-09-06T12:51:07.906Z,30.83
2023-09-06T12:53:35.257Z,30.82
2023-09-06T12:56:01.975Z,30.83
2023-09-06T12:58:29.159Z,30.77
2023-09-06T13:00:58.629Z,30.63
2023-09-06T13:03:26.662Z,30.48
2023-09-06T13:05:53.733Z,30.52
2023-09-06T13:08:21.087Z,30.50
2023-09-06T13:10:48.321Z,30.54
2023-09-06T13:13:19.973Z,30.59
2023-09-06T13:15:49.456Z,30.61
2023-09-06T13:18:16.288Z,30.65
2023-09-06T13:20:43.053Z,30.51
2023-09-06T13:23:11.769Z,30.29
2023-09-06T13:25:39.584Z,30.01
2023-09-06T13:28:06.482Z,29.91
2023-09-06T13:30:33.279Z,29.75
2023-09-06T13:33:02.527Z,29.56
2023-09-06T13:35:29.393Z,29.50
2023-09-06T13:37:57.494Z,29.45
2023-09-06T13:40:25.216Z,29.37
2023-09-06T13:42:52.049Z,29.33
2023-09-06T13:45:19.807Z,29.28
2023-09-06T13:47:46.716Z,29.09
2023-09-06T13:50:13.433Z,29.40
2023-09-06T13:52:40.118Z,29.47
2023-09-06T13:55:07.986Z,29.45
2023-09-06T13:57:36.933Z,29.41
2023-09-06T14:00:07.110Z,29.40
2023-09-06T14:02:36.409Z,29.40
2023-09-06T14:05:05.854Z,29.30
2023-09-06T14:07:32.687Z,29.45
2023-09-06T14:09:59.732Z,29.34
2023-09-06T14:12:27.256Z,29.33
2023-09-06T14:14:57.947Z,29.27
2023-09-06T14:17:24.838Z,29.22
2023-09-06T14:19:52.023Z,29.22
2023-09-06T14:22:18.709Z,29.16
2023-09-06T14:24:45.370Z,29.15
2023-09-06T14:27:12.257Z,29.13
2023-09-06T14:29:39.004Z,29.06
2023-09-06T14:32:05.990Z,29.05
2023-09-06T14:34:36.500Z,29.09
2023-09-06T14:37:04.863Z,29.11
2023-09-06T14:39:33.708Z,29.06
2023-09-06T14:42:00.464Z,28.90
2023-09-06T14:44:27.789Z,28.92
2023-09-06T14:46:54.619Z,28.80
2023-09-06T14:49:21.549Z,28.89
2023-09-06T14:51:48.276Z,28.96
2023-09-06T14:54:14.994Z,29.05
2023-09-06T14:56:44.172Z,28.66
2023-09-06T14:59:13.418Z,29.09
2023-09-06T15:01:40.265Z,29.00
2023-09-06T15:04:07.452Z,28.99
2023-09-06T15:06:56.370Z,28.81
2023-09-06T15:09:26.442Z,28.90
2023-09-06T15:11:56.447Z,28.92
2023-09-06T15:14:27.300Z,28.91
2023-09-06T15:16:54.058Z,28.91
2023-09-06T15:19:20.917Z,28.86
2023-09-06T15:21:50.168Z,28.99
2023-09-06T15:24:18.189Z,28.74
2023-09-06T15:26:44.940Z,29.01
2023-09-06T15:29:12.656Z,29.05
2023-09-06T15:31:39.375Z,29.02
2023-09-06T15:34:06.152Z,28.99
2023-09-06T15:36:35.038Z,28.94
2023-09-06T15:39:02.945Z,28.84
2023-09-06T15:41:33.898Z,28.72
2023-09-06T15:44:03.564Z,28.39
2023-09-06T15:46:33.354Z,28.15
2023-09-06T15:49:00.114Z,28.33
2023-09-06T15:51:29.337Z,28.13
2023-09-06T15:53:58.642Z,28.07
2023-09-06T15:56:28.310Z,28.00
2023-09-06T15:58:55.252Z,27.74
2023-09-06T16:01:22.407Z,27.86
2023-09-06T16:03:51.825Z,27.76
2023-09-06T16:06:21.084Z,27.60
2023-09-06T16:08:47.853Z,27.61
2023-09-06T16:11:14.648Z,27.59
2023-09-06T16:13:41.349Z,27.52
2023-09-06T16:16:08.045Z,26.97
2023-09-06T16:18:34.849Z,27.37
2023-09-06T16:21:01.596Z,27.35
2023-09-06T16:23:29.334Z,27.25
2023-09-06T16:25:58.275Z,27.14
2023-09-06T16:28:27.524Z,27.25
2023-09-06T16:30:56.702Z,27.04
2023-09-06T16:33:26.059Z,27.26
2023-09-06T16:35:53.021Z,27.19
2023-09-06T16:38:20.090Z,27.27
2023-09-06T16:40:49.359Z,27.32
2023-09-06T16:43:16.241Z,27.30
2023-09-06T16:45:45.569Z,27.29
2023-09-06T16:48:12.416Z,27.07
2023-09-06T16:50:40.564Z,27.04
2023-09-06T16:53:07.553Z,27.29
2023-09-06T16:55:34.617Z,27.04
2023-09-06T16:58:07.972Z,27.11
2023-09-06T17:00:35.999Z,27.12
2023-09-06T17:03:02.888Z,27.11
2023-09-06T17:05:29.624Z,27.01
2023-09-06T17:07:56.336Z,27.02
2023-09-06T17:10:23.104Z,26.85
2023-09-06T17:12:53.628Z,26.90
2023-09-06T17:15:22.607Z,26.85
2023-09-06T17:17:51.006Z,26.85
2023-09-06T17:20:19.424Z,26.70
2023-09-06T17:22:46.564Z,26.71
2023-09-06T17:25:13.520Z,26.64
2023-09-06T17:27:43.872Z,26.06
2023-09-06T17:30:20.457Z,26.51
2023-09-06T17:33:07.050Z,26.45
2023-09-06T17:35:34.394Z,26.38
2023-09-06T17:38:07.585Z,26.30
2023-09-06T17:40:35.383Z,26.11
2023-09-06T17:43:02.328Z,26.06
2023-09-06T17:45:31.255Z,25.82
2023-09-06T17:47:59.016Z,26.09
2023-09-06T17:50:25.988Z,25.70
2023-09-06T17:52:52.650Z,25.93
2023-09-06T17:55:21.122Z,25.67
2023-09-06T17:57:48.702Z,25.94
2023-09-06T18:00:24.139Z,25.95
2023-09-06T18:02:51.679Z,25.83
2023-09-06T18:05:21.216Z,25.77
2023-09-06T18:07:48.257Z,25.32
2023-09-06T18:10:17.776Z,25.82
2023-09-06T18:12:44.987Z,25.84
2023-09-06T18:15:13.479Z,25.82
2023-09-06T18:17:52.524Z,25.35
2023-09-06T18:20:19.552Z,25.67
2023-09-06T18:22:49.271Z,25.72
2023-09-06T18:25:15.948Z,25.75
2023-09-06T18:27:42.649Z,25.50
2023-09-06T18:30:16.852Z,25.75
2023-09-06T18:32:44.151Z,25.74
2023-09-06T18:35:12.087Z,25.72
2023-09-06T18:37:39.184Z,25.68
2023-09-06T18:40:16.496Z,25.66
2023-09-06T18:42:53.496Z,25.64
2023-09-06T18:45:21.013Z,25.61
2023-09-06T18:47:50.523Z,25.59
2023-09-06T18:50:18.910Z,25.55
2023-09-06T18:52:47.014Z,25.54
2023-09-06T18:55:16.278Z,25.44
2023-09-06T18:57:55.460Z,25.43
2023-09-06T19:00:26.091Z,25.33
2023-09-06T19:02:54.085Z,25.30
2023-09-06T19:05:20.957Z,25.16
2023-09-06T19:07:48.685Z,25.15
2023-09-06T19:10:17.498Z,25.21
2023-09-06T19:12:46.037Z,25.19
2023-09-06T19:15:17.673Z,25.10
2023-09-06T19:17:48.010Z,25.14
2023-09-06T19:20:19.716Z,25.10
2023-09-06T19:22:53.982Z,25.06
2023-09-06T19:25:25.438Z,25.01
2023-09-06T19:27:53.155Z,24.97
2023-09-06T19:30:22.450Z,24.74
2023-09-06T19:32:51.535Z,24.93
2023-09-06T19:35:18.512Z,24.88
2023-09-06T19:37:45.360Z,24.80
2023-09-06T19:40:14.508Z,24.80
2023-09-06T19:42:41.268Z,24.76
2023-09-06T19:45:10.392Z,24.69
2023-09-06T19:47:38.050Z,24.55
2023-09-06T19:50:05.656Z,24.61
2023-09-06T19:52:32.340Z,24.56
2023-09-06T19:55:02.185Z,24.65
2023-09-06T19:57:31.716Z,24.65
2023-09-06T20:00:02.320Z,24.61
2023-09-06T20:02:31.770Z,24.60
2023-09-06T20:04:59.039Z,24.57
2023-09-06T20:07:26.081Z,24.48
2023-09-06T20:09:53.518Z,24.52
2023-09-06T20:12:20.269Z,24.50
2023-09-06T20:14:47.076Z,24.41
2023-09-06T20:17:13.823Z,24.48
2023-09-06T20:19:40.616Z,24.47
2023-09-06T20:22:07.249Z,24.40
2023-09-06T20:24:33.926Z,24.38
2023-09-06T20:27:00.656Z,24.36
2023-09-06T20:29:33.281Z,24.39
2023-09-06T20:32:01.083Z,23.70
2023-09-06T20:34:30.868Z,24.00
2023-09-06T20:36:57.561Z,24.37
2023-09-06T20:39:26.461Z,24.37
2023-09-06T20:41:53.127Z,24.38
2023-09-06T20:44:19.825Z,24.38
2023-09-06T20:46:46.604Z,24.27
2023-09-06T20:49:18.326Z,24.36
2023-09-06T20:51:46.034Z,24.33
2023-09-06T20:54:12.979Z,24.34
2023-09-06T20:56:42.708Z,24.32
2023-09-06T20:59:09.470Z,24.30
2023-09-06T21:01:36.194Z,24.28
2023-09-06T21:04:05.659Z,24.19
2023-09-06T21:06:33.276Z,24.27
2023-09-06T21:09:02.298Z,24.12
2023-09-06T21:11:29.153Z,24.24
2023-09-06T21:13:55.914Z,24.24
2023-09-06T21:16:25.065Z,24.22
2023-09-06T21:18:52.564Z,24.18
2023-09-06T21:21:19.464Z,24.17
2023-09-06T21:23:46.239Z,24.21
2023-09-06T21:26:12.953Z,24.14
2023-09-06T21:28:39.726Z,24.23
2023-09-06T21:31:08.749Z,24.18
2023-09-06T21:33:35.563Z,24.23
2023-09-06T21:36:02.398Z,24.13
2023-09-06T21:38:29.520Z,23.59
2023-09-06T21:40:57.964Z,24.19
2023-09-06T21:43:24.847Z,24.17
2023-09-06T21:45:55.902Z,24.15
2023-09-06T21:48:23.271Z,24.14
2023-09-06T21:50:55.484Z,23.99
2023-09-06T21:53:22.163Z,24.08
2023-09-06T21:55:51.322Z,24.08
2023-09-06T21:58:20.264Z,24.14
2023-09-06T22:00:46.983Z,24.13
2023-09-06T22:03:15.016Z,24.00
2023-09-06T22:05:41.747Z,24.11
2023-09-06T22:08:08.992Z,23.53
2023-09-06T22:10:35.620Z,24.10
2023-09-06T22:13:03.932Z,24.07
2023-09-06T22:15:30.684Z,24.03
2023-09-06T22:17:57.687Z,24.07
2023-09-06T22:20:24.607Z,24.08
2023-09-06T22:22:53.570Z,23.45
2023-09-06T22:25:23.414Z,23.94
2023-09-06T22:27:51.335Z,23.92
2023-09-06T22:30:20.660Z,23.97
2023-09-06T22:32:47.340Z,23.98
2023-09-06T22:35:14.214Z,24.03
2023-09-06T22:37:42.591Z,24.02
2023-09-06T22:40:09.961Z,24.02
2023-09-06T22:42:36.710Z,24.02
2023-09-06T22:45:03.579Z,23.95
2023-09-06T22:47:30.294Z,24.00
2023-09-06T22:49:57.104Z,23.92
2023-09-06T22:52:24.737Z,23.98
2023-09-06T22:54:51.650Z,23.97
2023-09-06T22:57:18.776Z,23.96
2023-09-06T22:59:45.588Z,23.95
2023-09-06T23:02:12.389Z,23.92
2023-09-06T23:04:41.975Z,23.91
2023-09-06T23:07:12.200Z,23.84
2023-09-06T23:09:41.153Z,23.88
2023-09-06T23:12:07.948Z,23.87
2023-09-06T23:14:38.237Z,23.84
2023-09-06T23:17:08.727Z,23.78
2023-09-06T23:19:48.374Z,23.80
2023-09-06T23:22:18.277Z,23.77
2023-09-06T23:24:50.610Z,23.75
2023-09-06T23:27:24.428Z,23.75
2023-09-06T23:29:59.780Z,23.74
2023-09-06T23:32:32.327Z,23.72
2023-09-06T23:34:59.595Z,23.55
2023-09-06T23:37:28.034Z,23.67
2023-09-06T23:39:55.730Z,23.60
2023-09-06T23:42:23.219Z,23.66
2023-09-06T23:44:49.975Z,23.63
2023-09-06T23:47:17.656Z,23.60
2023-09-06T23:49:46.779Z,23.58
2023-09-06T23:52:16.132Z,23.48
2023-09-06T23:54:48.542Z,23.51
2023-09-06T23:57:19.115Z,23.43
2023-09-06T23:59:46.888Z,23.56
